Time;durP1;ratioP1;P1;durP2;ratioP2;P2;SDS_P1;SDS_P2;PMS_P1;PMS_P2;Temp;Humidity;BMP_temperature;BMP_pressure;BME280_temperature;BME280_humidity;BME280_pressure;Samples;Min_cycle;Max_cycle;Signal;HPM_P1;HPM_P2
2022/06/18 00:02:43;;;;;;;11.30;5.30;;;;;;;19.73;64.14;101195.16;5216266;56;1134966;-72
2022/06/18 00:07:53;;;;;;;14.18;6.37;;;;;;;19.52;63.99;101199.63;5216327;56;1140962;-73
2022/06/18 00:18:42;;;;;;;5.10;4.60;;;;;;;19.47;64.77;101185.80;5181102;56;1138912;-72
2022/06/18 00:23:48;;;;;;;5.40;3.75;;;;;;;19.52;64.52;101186.70;5141498;56;1138975;-72
2022/06/18 00:28:55;;;;;;;7.12;4.20;;;;;;;19.48;64.52;101184.80;5141395;57;1138994;-73
2022/06/18 00:34:00;;;;;;;3.67;2.80;;;;;;;19.40;64.92;101175.89;5144365;56;1139275;-72
2022/06/18 00:39:08;;;;;;;5.45;3.77;;;;;;;19.40;64.92;101175.89;5215816;56;1139068;-74
2022/06/18 00:44:21;;;;;;;6.45;3.95;;;;;;;19.49;65.10;101175.79;5218834;56;1138901;-72
2022/06/18 00:49:38;;;;;;;5.95;4.28;;;;;;;19.43;65.30;101174.20;5213289;56;1139001;-73
2022/06/18 00:55:17;;;;;;;6.12;3.30;;;;;;;19.32;66.05;101168.63;5150991;56;1138902;-73
2022/06/18 01:00:36;;;;;;;3.70;3.37;;;;;;;19.24;67.19;101168.59;5134984;57;1138912;-73
2022/06/18 01:05:43;;;;;;;7.50;5.20;;;;;;;19.24;67.19;101168.59;5141721;57;1139097;-72
2022/06/18 01:11:01;;;;;;;7.20;4.50;;;;;;;19.12;67.21;101165.32;5141516;57;1139097;-73
2022/06/18 01:16:10;;;;;;;3.40;2.35;;;;;;;19.06;67.68;101159.27;5141429;57;1139230;-73
2022/06/18 01:21:48;;;;;;;2.75;2.52;;;;;;;19.19;67.55;101155.66;5141651;57;1138997;-73
2022/06/18 01:26:55;;;;;;;4.05;2.42;;;;;;;19.27;66.28;101143.61;5141534;57;1137257;-73
2022/06/18 01:32:02;;;;;;;2.60;2.15;;;;;;;19.36;65.43;101147.20;5141575;57;1136765;-73
2022/06/18 01:37:10;;;;;;;20.02;12.55;;;;;;;19.36;64.51;101127.08;5199209;56;1136971;-73
2022/06/18 01:42:26;;;;;;;5.83;3.20;;;;;;;19.46;64.20;101125.59;5227325;55;1141034;-73
2022/06/18 01:48:10;;;;;;;6.12;2.83;;;;;;;19.47;63.84;101121.41;5210217;56;1136902;-73
2022/06/18 01:53:23;;;;;;;13.90;5.43;;;;;;;19.51;63.63;101113.42;5227881;56;1139181;-73
2022/06/18 01:58:40;;;;;;;2.98;2.72;;;;;;;19.48;63.50;101116.89;5227286;56;1141173;-73
2022/06/18 02:03:48;;;;;;;3.47;2.92;;;;;;;19.48;63.57;101115.05;5208030;56;1138950;-73
2022/06/18 02:08:54;;;;;;;2.77;2.30;;;;;;;19.48;63.52;101110.19;5146043;56;1139106;-73
2022/06/18 02:14:05;;;;;;;9.00;6.42;;;;;;;19.50;63.04;101107.71;5141307;57;1139016;-73
2022/06/18 02:19:12;;;;;;;4.40;3.02;;;;;;;19.50;62.85;101109.05;5141383;57;1139185;-73
2022/06/18 02:24:18;;;;;;;2.58;2.06;;;;;;;19.52;62.70;101105.71;5138861;57;1138847;-72
2022/06/18 02:29:29;;;;;;;3.52;1.50;;;;;;;19.55;62.49;101102.70;5130203;57;1138991;-72
2022/06/18 02:34:35;;;;;;;2.25;2.02;;;;;;;19.55;62.11;101093.32;5143445;56;1139119;-72
2022/06/18 02:39:54;;;;;;;3.58;1.62;;;;;;;19.49;61.61;101094.42;5214489;56;1139115;-73
2022/06/18 02:45:04;;;;;;;4.42;1.82;;;;;;;19.49;61.61;101094.42;5032527;58;1139019;-73
2022/06/18 02:50:14;;;;;;;2.65;1.95;;;;;;;19.49;61.42;101089.06;5173640;56;1138979;-73
2022/06/18 02:55:41;;;;;;;3.42;1.72;;;;;;;19.47;61.53;101091.06;5130668;57;1139017;-72
2022/06/18 03:00:53;;;;;;;2.00;1.22;;;;;;;19.49;61.40;101085.03;5172159;56;1139081;-72
2022/06/18 03:05:59;;;;;;;1.32;1.07;;;;;;;19.48;61.17;101077.98;5216265;56;1139228;-73
2022/06/18 03:16:30;;;;;;;3.90;1.50;;;;;;;19.47;60.76;101071.78;5216221;56;1139009;-73
2022/06/18 03:21:44;;;;;;;9.50;1.80;;;;;;;19.44;60.70;101069.92;5216314;56;1139429;-73
2022/06/18 03:26:51;;;;;;;4.05;1.67;;;;;;;19.43;60.91;101070.42;5216327;56;1136921;-73
2022/06/18 03:31:58;;;;;;;3.42;1.62;;;;;;;19.50;60.80;101065.28;5216397;56;1137043;-73
2022/06/18 03:37:06;;;;;;;2.50;2.27;;;;;;;19.50;60.83;101073.34;5223798;56;1137464;-73
2022/06/18 03:42:12;;;;;;;2.35;1.90;;;;;;;19.31;61.73;101073.06;5222269;55;1136894;-72
2022/06/18 03:47:20;;;;;;;3.62;2.33;;;;;;;19.16;62.69;101069.31;5304869;55;1136878;-73
2022/06/18 03:52:26;;;;;;;4.78;2.17;;;;;;;19.05;63.11;101064.25;5221136;55;1136893;-73
2022/06/18 03:57:33;;;;;;;2.22;1.98;;;;;;;19.03;63.61;101067.09;4972210;58;1137239;-72
2022/06/18 04:02:39;;;;;;;5.92;1.85;;;;;;;19.06;63.90;101033.26;5130320;57;1137142;-73
2022/06/18 04:07:45;;;;;;;4.15;1.85;;;;;;;19.06;63.90;101033.26;5131717;56;1136891;-73
2022/06/18 04:12:51;;;;;;;2.50;1.70;;;;;;;19.19;63.22;101041.69;5203620;56;1136962;-73
2022/06/18 04:18:15;;;;;;;3.52;1.87;;;;;;;19.23;62.94;101036.34;5223333;56;1136902;-73
2022/06/18 04:23:22;;;;;;;8.80;1.98;;;;;;;19.26;62.93;101026.61;5118326;57;1136874;-73
2022/06/18 04:28:28;;;;;;;2.77;1.77;;;;;;;19.32;63.08;101027.81;5173688;56;1137083;-74
2022/06/18 04:33:36;;;;;;;2.95;1.72;;;;;;;19.42;62.91;101039.23;5140671;57;1134956;-73
2022/06/18 04:38:57;;;;;;;3.33;1.50;;;;;;;19.50;62.92;101029.91;5160732;55;1139249;-73
2022/06/18 04:44:19;;;;;;;1.87;1.50;;;;;;;19.61;62.65;101023.37;5270040;55;1139214;-73
2022/06/18 04:49:38;;;;;;;3.25;1.80;;;;;;;19.64;62.43;101019.03;5209777;56;1139070;-72
2022/06/18 04:54:46;;;;;;;7.53;1.90;;;;;;;19.66;62.35;101010.31;5120551;57;1138970;-72
2022/06/18 04:59:52;;;;;;;3.52;1.60;;;;;;;19.69;62.32;101013.17;5151611;57;1139181;-72
2022/06/18 05:04:58;;;;;;;4.80;1.62;;;;;;;19.75;62.63;101001.75;5129192;57;1139075;-72
2022/06/18 05:10:07;;;;;;;3.60;1.82;;;;;;;19.82;62.61;100992.05;5045414;57;1139283;-72
2022/06/18 05:15:14;;;;;;;6.78;1.82;;;;;;;19.88;62.24;100991.36;5078367;57;1139021;-73
2022/06/18 05:20:24;;;;;;;2.10;1.87;;;;;;;19.89;61.78;100981.80;5075296;57;1138937;-75
2022/06/18 05:25:31;;;;;;;3.85;1.87;;;;;;;19.91;61.92;100974.92;5060048;58;1138972;-74
2022/06/18 05:30:38;;;;;;;6.42;1.90;;;;;;;19.95;61.77;100968.21;5076225;58;1139008;-72
2022/06/18 05:35:45;;;;;;;2.77;1.90;;;;;;;20.01;61.67;100960.84;5107738;57;1138981;-74
2022/06/18 05:40:52;;;;;;;4.17;1.87;;;;;;;20.07;61.08;100966.85;5160312;57;1139054;-74
2022/06/18 05:45:57;;;;;;;2.42;1.80;;;;;;;20.24;60.79;100961.80;5103258;57;1139221;-75
2022/06/18 05:51:07;;;;;;;4.80;1.57;;;;;;;20.46;60.05;100962.97;5108855;57;1139199;-74
2022/06/18 05:56:13;;;;;;;5.90;1.80;;;;;;;20.65;59.49;100957.67;5074303;58;1139037;-73
2022/06/18 06:01:24;;;;;;;5.35;1.67;;;;;;;20.81;58.65;100958.95;5096306;57;1139042;-75
2022/06/18 06:06:30;;;;;;;2.85;1.30;;;;;;;20.98;58.65;100958.38;5124295;57;1139008;-74
2022/06/18 06:11:37;;;;;;;2.62;1.72;;;;;;;21.19;58.40;100963.14;5134577;56;1138986;-76
2022/06/18 06:16:43;;;;;;;3.85;1.40;;;;;;;21.43;57.85;100957.62;5118654;57;1139311;-74
2022/06/18 06:21:49;;;;;;;2.10;1.80;;;;;;;21.64;56.20;100951.59;5113890;56;1138964;-75
2022/06/18 06:26:55;;;;;;;4.67;1.82;;;;;;;21.79;54.89;100933.64;5080807;57;1138912;-73
2022/06/18 06:32:02;;;;;;;2.55;1.37;;;;;;;21.90;54.22;100926.45;5151900;56;1139196;-75
2022/06/18 06:37:17;;;;;;;6.40;1.57;;;;;;;21.98;53.51;100916.97;5154828;57;1138900;-75
2022/06/18 06:42:23;;;;;;;4.97;1.57;;;;;;;22.12;53.52;100918.55;5215431;55;1138990;-74
2022/06/18 06:47:29;;;;;;;8.25;2.27;;;;;;;22.32;53.80;100911.56;5222002;56;1136201;-73
2022/06/18 06:52:34;;;;;;;20.48;6.83;;;;;;;22.48;53.73;100906.50;5167663;55;1137242;-75
2022/06/18 06:57:45;;;;;;;10.88;2.87;;;;;;;22.62;52.04;100897.05;5165626;56;1139266;-74
2022/06/18 07:02:50;;;;;;;4.12;1.67;;;;;;;22.68;51.73;100886.87;5188621;56;1139140;-75
2022/06/18 07:07:56;;;;;;;2.60;1.70;;;;;;;22.76;49.76;100897.56;5216463;56;1136893;-74
2022/06/18 07:13:02;;;;;;;5.37;1.72;;;;;;;22.89;49.88;100896.08;5216432;56;1136902;-74
2022/06/18 07:18:15;;;;;;;4.20;1.57;;;;;;;23.06;50.77;100891.61;5179364;56;1137249;-74
2022/06/18 07:23:21;;;;;;;8.60;1.98;;;;;;;23.32;50.92;100894.24;5216479;56;1137030;-74
2022/06/18 07:28:27;;;;;;;12.70;1.85;;;;;;;23.45;49.65;100883.56;5140891;56;1137006;-75
2022/06/18 07:33:35;;;;;;;1.85;1.72;;;;;;;23.55;49.24;100877.86;5125337;57;1139249;-74
2022/06/18 07:38:41;;;;;;;11.20;1.77;;;;;;;23.70;49.93;100875.91;5148743;56;1136976;-73
2022/06/18 07:43:54;;;;;;;8.25;1.92;;;;;;;23.82;48.68;100870.31;5168803;56;1139081;-73
2022/06/18 07:49:00;;;;;;;3.77;1.90;;;;;;;24.06;48.82;100873.05;5148356;56;1137141;-73
2022/06/18 07:54:07;;;;;;;3.75;2.00;;;;;;;24.32;47.66;100875.94;5226894;56;1136894;-73
2022/06/18 07:59:13;;;;;;;3.15;1.60;;;;;;;24.43;47.88;100869.15;5155413;56;1137262;-74
2022/06/18 08:04:19;;;;;;;1.17;1.00;;;;;;;24.50;46.20;100863.23;5150155;57;1134854;-73
2022/06/18 08:09:25;;;;;;;2.90;1.95;;;;;;;24.52;44.11;100857.11;5175907;56;21151;-73
2022/06/18 08:14:31;;;;;;;2.30;1.02;;;;;;;24.65;45.87;100849.05;5162168;56;1134757;-73
2022/06/18 08:19:36;;;;;;;8.03;1.57;;;;;;;24.94;45.77;100852.48;5156466;57;1138941;-73
2022/06/18 08:24:43;;;;;;;10.60;1.30;;;;;;;25.13;43.81;100834.94;5232440;55;1138942;-73
2022/06/18 08:29:50;;;;;;;2.77;1.67;;;;;;;25.38;43.02;100822.13;5242721;55;1141155;-74
2022/06/18 08:34:56;;;;;;;2.37;1.45;;;;;;;25.53;43.36;100816.81;5238182;55;1138917;-74
2022/06/18 08:40:02;;;;;;;6.50;1.60;;;;;;;25.76;41.71;100810.16;5222412;55;1139033;-73
2022/06/18 08:45:43;;;;;;;6.78;1.55;;;;;;;25.96;40.77;100798.77;5242390;56;1139219;-70
2022/06/18 08:51:05;;;;;;;16.50;2.30;;;;;;;26.05;39.86;100792.58;5221132;56;1139008;-71
2022/06/18 08:56:15;;;;;;;3.05;1.30;;;;;;;26.13;38.92;100800.46;5183813;56;1141025;-71
2022/06/18 09:01:34;;;;;;;3.87;1.62;;;;;;;26.33;40.78;100778.20;5242545;56;1139004;-71
2022/06/18 09:07:16;;;;;;;2.50;1.02;;;;;;;26.45;39.85;100771.57;5218568;56;1139063;-71
2022/06/18 09:12:47;;;;;;;3.37;1.20;;;;;;;26.60;36.98;100777.54;5154397;56;1138986;-71
2022/06/18 09:18:15;;;;;;;3.25;1.12;;;;;;;26.75;37.08;100757.72;5148586;55;1138935;-71
2022/06/18 09:23:33;;;;;;;7.97;2.02;;;;;;;26.93;38.12;100756.97;5217958;56;1136897;-71
2022/06/18 09:28:46;;;;;;;8.30;3.02;;;;;;;27.23;37.74;100744.43;5218198;55;1136233;-73
2022/06/18 09:34:08;;;;;;;5.28;1.55;;;;;;;27.44;35.78;100742.37;5219749;55;1136864;-74
2022/06/18 09:39:30;;;;;;;4.55;0.82;;;;;;;27.68;34.86;100734.72;5229144;55;1136888;-73
2022/06/18 09:44:53;;;;;;;5.17;1.30;;;;;;;27.96;33.99;100737.73;5212607;56;1134798;-73
2022/06/18 09:49:59;;;;;;;2.27;1.20;;;;;;;28.11;33.85;100718.86;5194798;55;1138920;-72
2022/06/18 09:55:15;;;;;;;3.93;1.00;;;;;;;28.21;32.88;100710.47;5182617;56;1139246;-73
2022/06/18 10:00:25;;;;;;;2.67;1.95;;;;;;;28.29;33.04;100696.53;5036742;57;1138967;-73
2022/06/18 10:11:19;;;;;;;12.75;1.22;;;;;;;28.61;32.89;100686.22;5227777;55;1138959;-75
2022/06/18 10:16:33;;;;;;;2.72;1.10;;;;;;;28.77;33.21;100679.80;5214335;55;1140942;-73
2022/06/18 10:21:50;;;;;;;9.10;1.85;;;;;;;28.90;32.16;100668.72;5219106;56;1139023;-73
2022/06/18 10:27:18;;;;;;;2.67;1.35;;;;;;;29.03;32.11;100678.84;5218831;55;1138922;-74
2022/06/18 10:32:40;;;;;;;3.25;0.85;;;;;;;29.18;31.93;100657.14;5200024;55;1138966;-74
2022/06/18 10:38:13;;;;;;;3.37;1.60;;;;;;;29.31;30.92;100639.18;5289075;55;1138915;-73
2022/06/18 10:43:36;;;;;;;;;;;;;;;29.55;32.44;100635.89;5274295;55;1136880;-74
2022/06/18 10:48:48;;;;;;;2.20;0.80;;;;;;;29.67;30.11;100640.77;5309044;55;974234;-74
2022/06/18 10:54:06;;;;;;;6.05;1.40;;;;;;;29.76;30.70;100631.16;5305055;55;1134799;-74
2022/06/18 10:59:11;;;;;;;8.00;1.00;;;;;;;29.69;30.60;100627.73;5307620;55;1136902;-73
2022/06/18 11:04:32;;;;;;;7.28;0.80;;;;;;;29.79;30.54;100639.40;5307993;55;1136880;-73
2022/06/18 11:09:48;;;;;;;12.63;1.07;;;;;;;29.92;30.65;100631.75;5293101;55;1136928;-75
2022/06/18 11:14:55;;;;;;;4.97;1.10;;;;;;;30.06;30.73;100624.13;5234174;55;1136879;-72
2022/06/18 11:20:17;;;;;;;4.70;0.80;;;;;;;30.07;30.40;100624.43;5242224;55;1134797;-74
2022/06/18 11:25:43;;;;;;;13.13;1.15;;;;;;;30.25;30.71;100620.09;5260274;55;1138870;-73
2022/06/18 11:30:55;;;;;;;1.10;0.98;;;;;;;30.45;30.11;100604.62;5230571;55;1141054;-72
2022/06/18 11:36:13;;;;;;;8.88;1.47;;;;;;;30.55;28.85;100600.73;5230813;55;1138932;-73
2022/06/18 11:41:23;;;;;;;2.92;1.00;;;;;;;30.68;29.00;100581.83;5237633;55;1139121;-74
2022/06/18 11:46:36;;;;;;;8.90;1.30;;;;;;;30.82;28.90;100581.77;5243076;55;1138991;-72
2022/06/18 11:51:55;;;;;;;2.77;0.95;;;;;;;30.91;29.65;100575.32;5217773;55;1139020;-73
2022/06/18 11:57:18;;;;;;;1.02;0.90;;;;;;;31.07;28.80;100565.72;5276643;55;1139070;-74
2022/06/18 12:02:31;;;;;;;3.83;1.30;;;;;;;31.16;28.52;100564.79;5308412;55;1139078;-75
2022/06/18 12:07:47;;;;;;;4.42;1.60;;;;;;;31.41;29.15;100545.14;5079818;57;1139064;-74
2022/06/18 12:13:15;;;;;;;1.10;1.00;;;;;;;31.62;28.66;100549.77;5012954;57;1139087;-76
2022/06/18 12:18:43;;;;;;;7.20;1.37;;;;;;;31.57;28.21;100537.94;4998595;59;1139083;-77
2022/06/18 12:24:01;;;;;;;5.35;1.07;;;;;;;31.63;27.68;100519.11;5050944;57;1137017;-75
2022/06/18 12:29:46;;;;;;;6.50;1.00;;;;;;;31.63;27.68;100519.11;5145394;56;1136987;-76
2022/06/18 12:35:08;;;;;;;7.85;1.45;;;;;;;31.73;27.45;100529.67;5071872;57;1137007;-74
2022/06/18 12:40:46;;;;;;;1.50;1.05;;;;;;;31.86;27.96;100516.11;5071158;57;1134865;-76
2022/06/18 12:46:11;;;;;;;8.40;1.77;;;;;;;31.96;27.85;100525.77;5143212;56;1139010;-72
2022/06/18 12:51:49;;;;;;;4.72;1.65;;;;;;;32.08;26.37;100511.36;5080007;57;1138977;-74
2022/06/18 12:57:13;;;;;;;2.02;1.35;;;;;;;32.02;28.01;100499.29;5081274;57;1139132;-74
2022/06/18 13:02:46;;;;;;;3.60;1.25;;;;;;;32.10;26.98;100503.72;5155593;57;1138983;-75
2022/06/18 13:08:30;;;;;;;4.25;1.22;;;;;;;32.09;27.71;100490.30;5077085;57;1138980;-76
2022/06/18 13:14:17;;;;;;;1.17;1.07;;;;;;;32.19;27.04;100478.63;5123118;57;1138979;-77
2022/06/18 13:19:28;;;;;;;5.25;1.20;;;;;;;32.39;27.42;100469.20;5090652;57;1136916;-73
2022/06/18 13:30:07;;;;;;;6.42;1.35;;;;;;;32.61;26.47;100438.40;5156128;57;1137102;-73
2022/06/18 13:35:44;;;;;;;4.60;2.00;;;;;;;32.59;26.33;100429.63;5129236;57;1136944;-73
2022/06/18 13:41:18;;;;;;;4.73;2.00;;;;;;;32.69;25.23;100427.50;4910568;59;1139180;-73
2022/06/18 13:46:51;;;;;;;1.40;1.10;;;;;;;32.85;25.97;100419.08;4902470;59;1139130;-76
2022/06/18 13:52:01;;;;;;;2.92;1.30;;;;;;;33.03;26.68;100404.61;4917703;59;1138982;-72
2022/06/18 13:57:09;;;;;;;4.92;1.60;;;;;;;33.30;25.66;100398.97;4902154;59;1139208;-75
2022/06/18 14:02:41;;;;;;;3.05;0.95;;;;;;;33.39;24.81;100408.29;4995794;59;1138962;-72
2022/06/18 14:07:50;;;;;;;4.90;1.90;;;;;;;33.42;24.80;100394.05;4974209;59;1139074;-75
2022/06/18 14:13:03;;;;;;;5.35;1.42;;;;;;;33.33;24.35;100391.00;4815629;60;1139125;-74
2022/06/18 14:18:13;;;;;;;8.60;1.60;;;;;;;33.40;24.28;100386.63;4941841;59;1139038;-76
2022/06/18 14:23:44;;;;;;;2.35;1.20;;;;;;;33.46;23.98;100379.48;5132995;57;1139208;-73
2022/06/18 14:29:01;;;;;;;5.25;1.35;;;;;;;33.34;24.54;100376.20;5111757;56;1138517;-72
2022/06/18 14:34:15;;;;;;;3.40;1.12;;;;;;;33.43;25.15;100362.78;5216118;56;1136967;-75
2022/06/18 14:39:27;;;;;;;5.20;1.77;;;;;;;33.44;24.16;100363.89;5218203;56;1137096;-75
2022/06/18 14:44:57;;;;;;;10.30;1.80;;;;;;;33.47;23.70;100359.20;5216921;56;1136875;-75
2022/06/18 14:50:25;;;;;;;3.67;1.17;;;;;;;33.47;24.45;100355.63;5216166;56;1139017;-75
2022/06/18 14:55:54;;;;;;;4.92;1.65;;;;;;;33.57;25.38;100350.72;5214971;55;1136966;-73
2022/06/18 15:01:23;;;;;;;10.60;1.70;;;;;;;33.62;24.48;100341.91;5213369;56;1139047;-73
2022/06/18 15:06:33;;;;;;;7.77;2.17;;;;;;;33.56;25.08;100324.39;5215008;56;1141154;-75
2022/06/18 15:11:51;;;;;;;5.28;1.92;;;;;;;33.56;25.08;100324.39;5179965;56;1139121;-75
2022/06/18 15:28:03;;;;;;;12.07;2.10;;;;;;;33.77;24.09;100327.39;5218781;56;1141044;-74
2022/06/18 15:33:19;;;;;;;11.13;2.07;;;;;;;33.69;24.53;100322.45;5233665;55;1141254;-74
2022/06/18 15:38:29;;;;;;;9.78;2.80;;;;;;;33.62;24.50;100321.89;5299820;55;1141088;-72
2022/06/18 15:43:51;;;;;;;14.00;2.85;;;;;;;33.59;24.21;100319.17;5278576;55;1138965;-73
2022/06/18 15:49:08;;;;;;;8.83;1.98;;;;;;;33.44;24.57;100303.56;5284844;55;1141164;-73
2022/06/18 15:54:43;;;;;;;10.35;2.72;;;;;;;33.34;25.08;100301.34;5229472;55;1139237;-73
2022/06/18 15:59:59;;;;;;;15.58;2.60;;;;;;;33.35;24.92;100297.52;5219950;55;1139107;-74
2022/06/18 16:05:07;;;;;;;14.30;2.72;;;;;;;33.36;25.07;100305.47;5218388;56;1138910;-74
2022/06/18 16:10:33;;;;;;;10.38;2.75;;;;;;;33.35;25.88;100301.08;5234282;55;1139047;-73
2022/06/18 16:15:43;;;;;;;9.25;2.40;;;;;;;33.34;25.53;100298.06;5163230;56;1139000;-74
2022/06/18 16:21:02;;;;;;;12.10;2.10;;;;;;;33.29;25.73;100306.30;5151818;56;1137250;-73
2022/06/18 16:26:10;;;;;;;13.53;2.83;;;;;;;33.26;25.35;100310.13;5147767;57;1140984;-75
2022/06/18 16:31:16;;;;;;;8.20;2.00;;;;;;;33.20;26.23;100310.64;5151895;57;1141175;-73
2022/06/18 16:36:26;;;;;;;13.57;2.33;;;;;;;33.24;26.34;100307.63;5197764;56;1138948;-73
2022/06/18 16:41:44;;;;;;;8.60;2.37;;;;;;;33.20;26.38;100309.27;5242835;56;1140981;-73
2022/06/18 16:46:52;;;;;;;9.98;2.55;;;;;;;33.03;26.76;100299.11;5242464;56;1139089;-73
2022/06/18 16:52:04;;;;;;;15.13;3.15;;;;;;;33.03;26.76;100299.11;5180780;56;1138987;-73
2022/06/18 16:57:23;;;;;;;9.18;2.75;;;;;;;33.02;27.24;100301.57;5203774;56;1141023;-73
2022/06/18 17:02:31;;;;;;;18.55;3.52;;;;;;;32.98;27.18;100302.69;5242528;56;1138968;-75
2022/06/18 17:07:38;;;;;;;12.30;2.70;;;;;;;32.92;27.52;100308.42;5242546;56;1141048;-73
2022/06/18 17:12:44;;;;;;;12.45;2.30;;;;;;;32.84;27.48;100310.61;5111966;56;1141071;-72
2022/06/18 17:17:50;;;;;;;8.50;2.30;;;;;;;32.73;27.75;100302.08;5164917;56;1141188;-73
2022/06/18 17:22:56;;;;;;;14.38;2.40;;;;;;;32.69;28.26;100300.14;5218251;56;1139080;-74
2022/06/18 17:33:25;;;;;;;13.48;3.15;;;;;;;32.55;28.40;100286.11;5232113;55;1141224;-72
2022/06/18 17:38:32;;;;;;;6.75;2.30;;;;;;;32.46;28.65;100284.45;5170153;56;1141030;-73
2022/06/18 17:43:41;;;;;;;19.02;6.30;;;;;;;32.39;28.74;100281.13;5164913;56;1138987;-73
2022/06/18 17:48:48;;;;;;;14.80;3.17;;;;;;;32.33;29.06;100286.87;5119564;57;1141065;-73
2022/06/18 17:53:54;;;;;;;10.58;2.92;;;;;;;32.29;29.30;100289.31;5022134;58;1141024;-73
2022/06/18 17:59:01;;;;;;;22.15;3.52;;;;;;;32.18;29.65;100286.23;5096775;56;1140450;-74
2022/06/18 18:04:29;;;;;;;19.42;2.77;;;;;;;32.10;30.20;100296.30;5132535;57;1141048;-74
2022/06/18 18:09:39;;;;;;;10.20;3.12;;;;;;;31.98;31.14;100298.44;5126112;56;1141041;-73
2022/06/18 18:14:49;;;;;;;15.77;3.63;;;;;;;31.92;31.82;100295.41;5031453;58;1141084;-72
2022/06/18 18:19:55;;;;;;;19.85;8.18;;;;;;;31.98;32.40;100290.23;5213240;56;1138944;-72
2022/06/18 18:25:04;;;;;;;18.42;4.17;;;;;;;31.98;32.43;100285.58;5216139;56;1138967;-74
2022/06/18 18:30:13;;;;;;;26.52;6.85;;;;;;;31.91;32.59;100297.86;5216660;56;1138965;-73
2022/06/18 18:35:20;;;;;;;26.60;6.80;;;;;;;31.82;33.38;100297.52;5190915;56;1139069;-74
2022/06/18 18:40:26;;;;;;;20.50;5.80;;;;;;;31.83;34.42;100295.06;5147732;56;1138965;-74
2022/06/18 18:45:33;;;;;;;32.55;10.82;;;;;;;31.79;35.46;100303.52;5004416;58;1139146;-73
2022/06/18 18:50:39;;;;;;;40.60;11.08;;;;;;;31.74;35.70;100301.59;5147914;56;1141175;-73
2022/06/18 18:55:47;;;;;;;27.00;8.13;;;;;;;31.66;35.68;100300.70;5201497;56;1141289;-72
2022/06/18 19:00:53;;;;;;;28.07;16.15;;;;;;;31.54;36.12;100306.88;5118293;57;1139012;-72
2022/06/18 19:05:58;;;;;;;39.33;20.50;;;;;;;31.35;35.92;100302.89;5207959;56;1141098;-72
2022/06/18 19:11:08;;;;;;;54.20;29.55;;;;;;;31.22;36.24;100306.89;5147821;56;1141017;-72
2022/06/18 19:16:14;;;;;;;45.80;21.27;;;;;;;31.06;37.97;100314.63;4988514;58;1141012;-73
2022/06/18 19:21:25;;;;;;;55.60;22.55;;;;;;;30.77;38.68;100319.53;5089931;56;1141049;-72
2022/06/18 19:26:31;;;;;;;38.28;13.10;;;;;;;30.61;39.42;100325.36;5084209;57;1141068;-72
2022/06/18 19:31:37;;;;;;;43.73;22.80;;;;;;;30.52;39.82;100338.33;5181638;55;1139088;-73
2022/06/18 19:36:49;;;;;;;49.27;22.52;;;;;;;30.38;39.89;100341.44;5000859;57;1138885;-73
2022/06/18 19:41:55;;;;;;;41.20;20.57;;;;;;;30.25;40.45;100344.52;5197432;56;1143313;-74
2022/06/18 19:47:01;;;;;;;55.83;25.60;;;;;;;30.04;42.35;100353.52;5139684;56;1142956;-72
2022/06/18 19:52:10;;;;;;;65.37;16.77;;;;;;;29.78;42.15;100361.00;5131402;56;1143177;-73
2022/06/18 19:57:18;;;;;;;61.95;22.67;;;;;;;29.57;43.18;100362.03;5129715;57;1143130;-74
2022/06/18 20:02:30;;;;;;;78.07;43.42;;;;;;;29.40;43.13;100372.09;5092629;57;1143101;-72
2022/06/18 20:07:39;;;;;;;54.27;37.98;;;;;;;29.03;43.80;100387.98;5132711;56;1143078;-74
2022/06/18 20:12:51;;;;;;;31.73;8.75;;;;;;;28.56;43.88;100411.26;5173988;56;1143164;-72
2022/06/18 20:18:04;;;;;;;29.10;9.78;;;;;;;28.19;45.78;100422.94;5111107;56;1140991;-73
2022/06/18 20:23:10;;;;;;;22.00;5.78;;;;;;;28.07;46.10;100431.59;5068732;57;1140989;-73
2022/06/18 20:28:22;;;;;;;18.10;5.40;;;;;;;27.97;46.59;100432.16;5060373;58;1141087;-72
2022/06/18 20:33:28;;;;;;;11.68;3.83;;;;;;;27.93;47.01;100443.23;5224340;56;1140995;-73
2022/06/18 20:38:40;;;;;;;4.65;3.42;;;;;;;27.58;48.30;100451.83;5193100;56;1141053;-72
2022/06/18 20:43:47;;;;;;;8.33;3.87;;;;;;;27.58;48.30;100451.83;5237630;56;1138971;-72
2022/06/18 20:48:56;;;;;;;5.95;3.95;;;;;;;27.40;48.99;100458.64;5238029;56;1139225;-72
2022/06/18 20:59:28;;;;;;;15.90;3.80;;;;;;;27.25;49.35;100471.27;5207302;56;1138942;-72
2022/06/18 21:04:34;;;;;;;8.50;3.50;;;;;;;27.20;49.78;100470.59;5192918;56;1141209;-72
2022/06/18 21:09:41;;;;;;;12.20;3.85;;;;;;;27.00;49.82;100459.18;5212170;56;1138972;-72
2022/06/18 21:14:47;;;;;;;6.92;4.12;;;;;;;26.98;50.01;100461.81;5151958;56;1140959;-72
2022/06/18 21:19:53;;;;;;;5.15;3.08;;;;;;;26.87;50.32;100459.31;5141061;57;1138912;-72
2022/06/18 21:24:59;;;;;;;10.23;4.00;;;;;;;26.69;50.31;100464.73;5143597;56;1138967;-72
2022/06/18 21:30:06;;;;;;;10.25;3.87;;;;;;;26.54;50.77;100456.97;5179521;56;1141056;-71
2022/06/18 21:40:52;;;;;;;6.45;3.47;;;;;;;26.29;51.38;100456.98;5133476;57;1136913;-72
2022/06/18 21:46:01;;;;;;;8.28;3.60;;;;;;;26.15;51.61;100463.03;5081713;57;1136943;-72
2022/06/18 21:51:07;;;;;;;9.23;3.70;;;;;;;26.06;51.88;100458.13;5124714;57;1136922;-72
2022/06/18 21:56:16;;;;;;;10.85;3.40;;;;;;;26.00;52.15;100452.22;5170307;56;1136948;-72
2022/06/18 22:01:22;;;;;;;12.30;3.27;;;;;;;25.89;52.01;100454.61;5180830;56;1139170;-72
2022/06/18 22:06:28;;;;;;;8.03;2.92;;;;;;;25.76;52.20;100456.59;5183050;56;1139023;-71
2022/06/18 22:11:34;;;;;;;8.88;2.90;;;;;;;25.66;52.29;100453.55;5154629;56;1137036;-73
2022/06/18 22:22:03;;;;;;;6.03;2.45;;;;;;;25.44;52.27;100448.44;5251756;55;1137017;-71
2022/06/18 22:27:09;;;;;;;4.28;2.60;;;;;;;25.36;52.38;100456.00;5181989;56;1137178;-71
2022/06/18 22:32:17;;;;;;;6.25;2.80;;;;;;;25.30;52.65;100448.20;5162576;56;1134825;-71
2022/06/18 22:37:22;;;;;;;12.03;4.83;;;;;;;25.23;52.53;100460.41;5285116;55;21482;-71
2022/06/18 22:42:29;;;;;;;10.90;4.17;;;;;;;25.21;52.62;100453.55;5249171;55;1137208;-71
2022/06/18 22:47:37;;;;;;;11.40;2.60;;;;;;;25.16;52.71;100452.86;5239423;55;1141311;-71
2022/06/18 22:52:47;;;;;;;5.53;3.53;;;;;;;25.05;52.57;100456.25;5281928;55;1141312;-70
2022/06/18 22:57:52;;;;;;;2.83;2.25;;;;;;;25.05;52.97;100452.72;5306770;55;1139077;-71
2022/06/18 23:02:58;;;;;;;5.30;2.62;;;;;;;24.99;53.01;100452.21;5306676;55;1138955;-71
2022/06/18 23:08:07;;;;;;;3.27;2.35;;;;;;;24.82;52.84;100455.36;5306949;55;1138961;-72
2022/06/18 23:13:15;;;;;;;5.65;2.67;;;;;;;24.79;53.35;100457.13;5197576;56;1139373;-71
2022/06/18 23:18:23;;;;;;;8.98;3.05;;;;;;;24.90;53.77;100461.87;5218748;56;1138993;-72
2022/06/18 23:23:29;;;;;;;10.55;6.85;;;;;;;24.90;53.57;100471.89;5274754;55;1139102;-71
2022/06/18 23:28:35;;;;;;;17.55;6.55;;;;;;;24.80;53.82;100469.61;5307466;55;1141218;-71
2022/06/18 23:33:41;;;;;;;15.23;9.23;;;;;;;24.76;53.96;100474.30;5307198;55;1141040;-72
2022/06/18 23:38:47;;;;;;;16.80;7.75;;;;;;;24.74;54.06;100469.13;5219199;55;1141063;-71
2022/06/18 23:43:54;;;;;;;5.10;3.50;;;;;;;24.75;54.20;100469.41;5249964;55;1141131;-72
2022/06/18 23:49:03;;;;;;;3.77;3.08;;;;;;;24.67;54.21;100472.36;5292694;55;1138970;-72
2022/06/18 23:54:10;;;;;;;7.42;4.42;;;;;;;24.56;54.28;100468.97;5251876;55;1139164;-71
2022/06/18 23:59:17;;;;;;;11.60;3.70;;;;;;;24.41;54.25;100473.25;5247768;55;1138780;-71
